Latest Weather Observations for Swan Hill

IDN60801

Issued at 7:53 am EST Sunday 19 May 2024 (issued every 10 minutes, with the page automatically refreshed every 10 minutes)

About weather observations | Map of weather stations | Latest weather observations for NSW | Other Formats
Station Details ID: 077094 Name: SWAN HILL AERODROME Lat: -35.38 Lon: 143.54 Height: 71.0 m
Data from the previous 72 hours. | See also: Recent months at Swan Hill
Date/Time
EST
Temp
°C
App
Temp
°C
Dew
Point
°C
Rel
Hum
%
Delta-T
°C
Wind Press
QNH
hPa
Press
MSL
hPa
Rain since
9am
mm
Dir  Spd
km/h
Gust
km/h
Spd
kts
Gust
kts
19/07:30am 1.7 -2.8 -0.4 86 0.8 WSW 13 15 7 8 1029.0 1029.1 0.0
19/07:00am 1.9 -2.2 -0.5 84 0.9 SW 11 13 6 7 1028.4 1028.5 0.0
19/06:30am 1.8 -2.8 -0.8 83 0.9 SW 13 17 7 9 1028.3 1028.4 0.0
19/06:00am 1.5 -2.3 -1.1 83 0.9 SW 9 11 5 6 1028.4 1028.5 0.0
19/05:30am 1.7 -2.1 -0.9 83 0.9 SW 9 9 5 5 1028.4 1028.5 0.0
19/05:00am 2.1 -1.7 -0.8 81 1.0 SW 9 11 5 6 1028.2 1028.3 0.0
19/04:30am 2.0 -1.4 -0.7 82 1.0 SSW 7 11 4 6 1028.1 1028.2 0.0
19/04:00am 2.8 -0.9 -0.3 80 1.1 SSW 9 11 5 6 1028.3 1028.4 0.0
19/03:30am 2.2 -1.6 -0.5 82 1.0 SSW 9 13 5 7 1028.4 1028.5 0.0
19/03:00am 0.9 -1.6 -0.9 88 0.6 SSW 2 9 1 5 1028.6 1028.7 0.0
19/02:30am 1.3 -1.9 -0.8 86 0.8 SSW 6 6 3 3 1028.5 1028.6 0.0
19/02:00am 2.1 -1.1 -0.5 83 0.9 SSW 6 9 3 5 1028.7 1028.8 0.0
19/01:30am 1.9 -1.5 -0.7 83 0.9 SSW 7 9 4 5 1028.6 1028.7 0.0
19/01:00am 1.8 -0.6 -0.6 84 0.9 SSW 2 6 1 3 1028.6 1028.7 0.0
19/12:30am 3.1 0.7 0.0 80 1.2 SSW 2 11 1 6 1028.8 1028.9 0.0
19/12:00am 3.5 0.3 -0.3 76 1.4 SSW 6 7 3 4 1029.0 1029.1 0.0
 
Date/Time
EST
Temp
°C
App
Temp
°C
Dew
Point
°C
Rel
Hum
%
Delta-T
°C
Wind Press
QNH
hPa
Press
MSL
hPa
Rain since
9am
mm
Dir  Spd
km/h
Gust
km/h
Spd
kts
Gust
kts
18/11:30pm 3.3 0.5 -0.3 77 1.3 SSW 4 7 2 4 1029.2 1029.3 0.0
18/11:00pm 5.5 1.5 0.5 70 1.9 SSW 11 13 6 7 1029.3 1029.4 0.0
18/10:30pm 5.0 1.4 0.6 73 1.7 SSW 9 13 5 7 1029.7 1029.8 0.0
18/10:00pm 5.0 2.3 0.0 70 1.9 SSW 4 6 2 3 1029.7 1029.8 0.0
18/09:30pm 6.6 3.3 0.3 64 2.5 SSW 7 9 4 5 1030.0 1030.1 0.0
18/09:00pm 6.6 3.0 0.7 66 2.3 S 9 19 5 10 1029.9 1030.0 0.0
18/08:30pm 6.1 2.8 0.0 65 2.4 S 7 11 4 6 1029.9 1030.0 0.0
18/08:00pm 7.1 3.8 0.3 62 2.7 SSW 7 11 4 6 1029.7 1029.8 0.0
18/07:30pm 7.4 4.3 0.2 60 2.8 SSW 6 9 3 5 1030.0 1030.1 0.0
18/07:00pm 9.0 5.3 0.2 54 3.5 SSW 9 13 5 7 1029.8 1029.9 0.0
18/06:30pm 9.2 5.6 0.4 54 3.6 S 9 13 5 7 1029.5 1029.6 0.0
18/06:00pm 10.8 7.2 0.8 50 4.1 S 9 11 5 6 1029.4 1029.5 0.0
18/05:30pm 12.0 8.4 0.8 46 4.7 S 9 13 5 7 1029.4 1029.5 0.0
18/05:00pm 13.5 8.4 0.9 42 5.3 S 17 24 9 13 1029.7 1029.8 0.0
18/04:30pm 14.0 9.3 1.0 41 5.6 S 15 22 8 12 1029.7 1029.8 0.0
18/04:00pm 14.8 9.8 1.3 40 5.8 S 17 26 9 14 1029.6 1029.7 0.0
18/03:30pm 14.8 9.6 0.3 37 6.2 S 17 28 9 15 1029.8 1029.9 0.0
18/03:00pm 14.9 9.5 1.1 39 5.9 SSE 19 30 10 16 1029.9 1030.0 0.0
18/02:30pm 14.8 9.2 1.3 40 5.9 SSE 20 33 11 18 1030.0 1030.1 0.0
18/02:00pm 14.6 9.0 1.2 40 5.8 SSE 20 30 11 16 1030.3 1030.4 0.0
18/01:30pm 14.6 9.2 1.2 40 5.8 SSE 19 28 10 15 1030.6 1030.7 0.0
18/01:00pm 14.2 8.5 0.8 40 5.7 SSE 20 35 11 19 1031.0 1031.1 0.0
18/12:30pm 14.0 8.4 1.3 42 5.5 SE 20 32 11 17 1031.4 1031.5 0.0
18/12:00pm 13.2 7.0 -0.1 40 5.5 SSE 22 37 12 20 1031.8 1031.9 0.0
18/11:30am 13.0 6.7 1.4 45 5.0 SSE 24 39 13 21 1032.1 1032.2 0.0
18/11:00am 12.3 5.6 1.3 47 4.6 SSE 26 43 14 23 1032.3 1032.4 0.0
18/10:30am 12.1 6.8 2.8 53 4.1 SSE 20 35 11 19 1032.3 1032.4 0.0
18/10:00am 11.0 6.0 4.5 64 2.9 S 20 28 11 15 1032.6 1032.7 0.0
18/09:30am 9.8 5.0 4.6 70 2.3 S 19 28 10 15 1032.5 1032.6 0.0
18/09:00am 8.3 3.9 4.5 77 1.7 S 17 26 9 14 1032.4 1032.5 0.0
18/08:30am 7.1 3.4 4.2 82 1.3 S 13 20 7 11 1032.3 1032.4 0.0
18/08:00am 6.1 2.3 3.9 86 0.9 SSW 13 20 7 11 1031.9 1032.0 0.0
18/07:30am 5.5 1.6 3.5 87 0.8 SSW 13 19 7 10 1031.6 1031.7 0.0
18/07:00am 5.6 2.1 3.6 87 0.8 SSW 11 17 6 9 1031.4 1031.5 0.0
18/06:30am 5.4 1.5 3.6 88 0.8 S 13 19 7 10 1031.0 1031.1 0.0
18/06:00am 5.0 1.8 3.2 88 0.7 S 9 15 5 8 1030.8 1030.9 0.0
18/05:30am 5.8 2.4 3.8 87 0.8 S 11 19 6 10 1030.8 1030.9 0.0
18/05:00am 6.6 2.9 4.4 86 0.9 SSW 13 19 7 10 1030.5 1030.6 0.0
18/04:30am 7.0 3.4 4.8 86 1.0 S 13 17 7 9 1030.2 1030.3 0.0
18/04:00am 7.4 3.4 4.7 83 1.2 S 15 22 8 12 1030.0 1030.1 0.0
18/03:30am 8.1 3.7 5.0 81 1.4 S 17 24 9 13 1030.1 1030.2 0.0
18/03:00am 8.7 3.4 5.1 78 1.6 S 22 32 12 17 1030.1 1030.2 0.0
18/02:30am 6.9 3.6 4.6 85 1.0 S 11 20 6 11 1030.1 1030.2 0.0
18/02:00am 7.7 4.0 4.7 81 1.3 S 13 22 7 12 1030.1 1030.2 0.0
18/01:30am 7.3 3.6 4.4 82 1.3 SSW 13 20 7 11 1030.0 1030.1 0.0
18/01:00am 7.4 4.1 4.5 82 1.3 SSW 11 17 6 9 1030.1 1030.2 0.0
18/12:30am 8.0 4.8 5.1 82 1.3 S 11 15 6 8 1030.2 1030.3 0.0
18/12:00am 8.2 5.1 5.5 83 1.2 SSW 11 15 6 8 1030.4 1030.5 0.0
 
Date/Time
EST
Temp
°C
App
Temp
°C
Dew
Point
°C
Rel
Hum
%
Delta-T
°C
Wind Press
QNH
hPa
Press
MSL
hPa
Rain since
9am
mm
Dir  Spd
km/h
Gust
km/h
Spd
kts
Gust
kts
17/11:30pm 9.3 6.3 5.9 79 1.6 S 11 17 6 9 1030.3 1030.4 0.0
17/11:00pm 9.9 6.3 6.8 81 1.4 S 15 20 8 11 1030.0 1030.1 0.0
17/10:30pm 11.0 7.4 6.9 76 2.0 S 15 20 8 11 1029.9 1030.0 0.0
17/10:00pm 11.8 7.9 6.9 72 2.3 SSE 17 22 9 12 1029.7 1029.8 0.0
17/09:30pm 12.9 8.6 7.1 68 2.8 S 19 26 10 14 1029.5 1029.6 0.0
17/09:00pm 12.8 9.8 7.7 71 2.5 S 13 20 7 11 1029.3 1029.4 0.0
17/08:30pm 12.8 9.0 7.7 71 2.5 SSE 17 22 9 12 1028.9 1029.0 0.0
17/08:00pm 13.4 9.2 7.4 67 2.9 S 19 28 10 15 1028.6 1028.7 0.0
17/07:30pm 13.1 9.6 7.1 67 2.9 SW 15 19 8 10 1028.1 1028.2 0.0
17/07:00pm 13.9 10.4 7.4 65 3.2 SW 15 19 8 10 1027.7 1027.8 0.0
17/06:30pm 14.8 11.0 7.4 61 3.7 SW 17 20 9 11 1027.5 1027.6 0.0
17/06:00pm 15.8 11.6 7.6 58 4.1 SW 19 26 10 14 1027.3 1027.4 0.0
17/05:30pm 16.7 12.4 7.9 56 4.5 SW 20 30 11 16 1026.9 1026.9 0.0
17/05:00pm 18.1 12.6 7.5 50 5.3 SW 26 35 14 19 1026.7 1026.7 0.0
17/04:30pm 18.7 13.0 8.4 51 5.3 SW 28 41 15 22 1026.5 1026.5 0.0
17/04:00pm 19.2 15.1 8.5 50 5.5 SSW 20 30 11 16 1026.6 1026.6 0.0
17/03:30pm 19.5 14.1 7.9 47 6.0 SSW 26 37 14 20 1026.3 1026.3 0.0
17/03:00pm 20.0 14.8 7.4 44 6.4 SSW 24 33 13 18 1026.1 1026.1 0.0
17/02:30pm 20.0 15.3 7.7 45 6.3 SW 22 35 12 19 1026.0 1026.0 0.0
17/02:00pm 20.1 15.1 8.1 46 6.2 SSW 24 35 13 19 1026.1 1026.1 0.0
17/01:30pm 20.3 15.4 8.6 47 6.1 SW 24 35 13 19 1026.2 1026.2 0.0
17/01:00pm 20.0 15.1 8.4 47 6.0 SW 24 33 13 18 1026.3 1026.3 0.0
17/12:30pm 19.5 15.1 7.3 45 6.2 SW 20 30 11 16 1026.7 1026.7 0.0
17/12:00pm 19.3 14.5 7.4 46 6.0 SW 22 30 12 16 1027.0 1027.0 0.0
17/11:30am 18.9 14.1 7.4 47 5.9 SW 22 32 12 17 1027.5 1027.6 0.0
17/11:00am 18.5 14.4 8.5 52 5.2 SW 20 26 11 14 1027.8 1027.9 0.0
17/10:30am 17.5 14.0 8.9 57 4.5 WSW 17 20 9 11 1027.6 1027.7 0.0
17/10:00am 16.3 14.1 9.5 64 3.5 WSW 11 17 6 9 1027.4 1027.5 0.0
17/09:30am 13.5 11.5 8.6 72 2.5 WSW 9 11 5 6 1027.4 1027.5 0.0
17/09:00am 11.0 9.2 8.1 82 1.4 WSW 7 11 4 6 1027.5 1027.6 0.0
17/08:30am 9.1 6.8 7.5 90 0.8 W 9 11 5 6 1027.7 1027.8 0.0
17/08:00am 7.0 4.4 6.3 95 0.3 NNW 9 11 5 6 1027.1 1027.1 0.0
17/07:30am 5.7 2.8 4.7 93 0.4 NNW 9 11 5 6 1027.1 1027.1 0.0
17/07:00am 5.8 3.3 4.9 94 0.4 NNW 7 9 4 5 1026.8 1026.8 0.0
17/06:30am 5.9 3.9 4.5 91 0.6 NNW 4 6 2 3 1026.9 1026.9 0.0
17/06:00am 6.1 3.7 5.4 95 0.3 NNW 7 7 4 4 1026.9 1026.9 0.0
17/05:30am 5.5 3.0 4.6 94 0.4 NE 7 9 4 5 1026.7 1026.7 0.0
17/05:21am 5.7 3.2 5.0 95 0.3 NE 7 7 4 4 1026.8 1026.8 0.0
17/05:02am 5.5 3.2 4.6 94 0.4 NE 6 7 3 4 1026.7 1026.7 0.0
17/05:00am 5.7 3.4 4.7 93 0.4 NE 6 7 3 4 1026.7 1026.7 0.0
17/04:30am 5.8 3.5 4.8 93 0.4 NE 6 6 3 3 1026.8 1026.8 0.0
17/04:00am 5.6 3.2 4.2 91 0.6 NE 6 7 3 4 1026.7 1026.7 0.0
17/03:30am 6.2 4.0 5.3 94 0.4 NE 6 7 3 4 1026.7 1026.7 0.0
17/03:00am 6.2 5.1 5.3 94 0.4 CALM 0 0 0 0 1026.7 1026.7 0.0
17/02:30am 6.4 5.4 5.5 94 0.4 CALM 0 0 0 0 1026.7 1026.7 0.0
17/02:00am 6.5 5.5 5.6 94 0.4 CALM 0 0 0 0 1026.7 1026.7 0.0
17/01:30am 6.7 5.7 5.5 92 0.5 CALM 0 0 0 0 1026.8 1026.8 0.0
17/01:00am 7.2 6.3 6.0 92 0.5 CALM 0 0 0 0 1026.8 1026.8 0.0
17/12:30am 7.3 6.3 5.8 90 0.7 CALM 0 0 0 0 1026.9 1026.9 0.0
17/12:00am 7.8 6.9 6.1 89 0.8 CALM 0 0 0 0 1027.0 1027.0 0.0
 
Date/Time
EST
Temp
°C
App
Temp
°C
Dew
Point
°C
Rel
Hum
%
Delta-T
°C
Wind Press
QNH
hPa
Press
MSL
hPa
Rain since
9am
mm
Dir  Spd
km/h
Gust
km/h
Spd
kts
Gust
kts
16/11:30pm 8.1 7.3 6.6 90 0.7 CALM 0 0 0 0 1027.2 1027.3 0.0
16/11:00pm 8.4 7.6 6.4 87 0.9 CALM 0 0 0 0 1027.4 1027.5 0.0
16/10:30pm 8.9 8.2 6.9 87 0.9 CALM 0 0 0 0 1027.4 1027.5 0.0
16/10:00pm 8.3 7.3 5.8 84 1.1 CALM 0 0 0 0 1027.5 1027.6 0.0
16/09:30pm 9.9 9.3 7.5 85 1.1 CALM 0 0 0 0 1027.6 1027.7 0.0
16/09:00pm 10.2 9.7 8.0 86 1.1 CALM 0 0 0 0 1027.6 1027.7 0.0
16/08:30pm 10.8 10.4 8.2 84 1.3 CALM 0 0 0 0 1027.5 1027.6 0.0
16/08:00pm 11.0 9.4 7.9 81 1.5 NE 6 7 3 4 1027.6 1027.7 0.0
16/07:30pm 12.6 10.9 8.5 76 2.0 NE 7 7 4 4 1027.6 1027.7 0.0
16/07:00pm 13.0 11.6 8.7 75 2.1 NE 6 7 3 4 1027.4 1027.5 0.0
16/06:30pm 14.3 12.9 8.7 69 2.8 NE 6 7 3 4 1027.1 1027.1 0.0
16/06:00pm 14.9 13.4 8.6 66 3.2 NE 6 7 3 4 1027.0 1027.0 0.0
16/05:30pm 17.7 16.2 9.1 57 4.5 NE 7 9 4 5 1026.8 1026.8 0.0
16/05:00pm 19.1 17.6 9.3 53 5.1 NE 7 9 4 5 1026.7 1026.7 0.0
16/04:30pm 20.2 18.8 9.7 51 5.6 NE 7 9 4 5 1026.7 1026.7 0.0
16/04:00pm 20.8 19.3 9.1 47 6.2 NE 7 11 4 6 1026.7 1026.7 0.0
16/03:30pm 20.9 19.3 8.9 46 6.4 E 7 11 4 6 1026.7 1026.7 0.0
16/03:00pm 21.2 19.9 9.1 46 6.4 SSE 6 11 3 6 1026.7 1026.7 0.0
16/02:30pm 20.6 19.0 8.9 47 6.2 ENE 7 11 4 6 1026.8 1026.8 0.0
16/02:00pm 21.0 19.5 9.3 47 6.2 NE 7 11 4 6 1027.0 1027.0 0.0
16/01:30pm 20.2 18.8 8.8 48 6.0 E 6 9 3 5 1027.4 1027.5 0.0
16/01:00pm 19.7 18.2 9.3 51 5.5 ENE 7 13 4 7 1027.7 1027.8 0.0
16/12:30pm 18.7 17.1 8.9 53 5.1 SE 7 11 4 6 1028.0 1028.1 0.0
16/12:00pm 18.5 17.2 9.8 57 4.6 ESE 7 13 4 7 1028.6 1028.7 0.0
16/11:30am 17.4 15.7 9.8 61 4.0 ESE 9 11 5 6 1028.9 1029.0 0.0
16/11:00am 16.3 14.9 9.7 65 3.4 E 7 11 4 6 1029.2 1029.3 0.0
16/10:30am 15.5 13.6 9.2 66 3.2 E 9 11 5 6 1029.5 1029.6 0.0
16/10:00am 14.1 12.7 9.7 75 2.3 ESE 7 11 4 6 1029.6 1029.7 0.0
16/09:30am 12.8 11.4 9.6 81 1.6 SSE 7 11 4 6 1029.7 1029.8 0.0
16/09:00am 10.7 9.0 8.3 85 1.2 SE 7 11 4 6 1029.5 1029.6 -
16/08:30am 9.2 8.6 7.5 89 0.8 CALM 0 6 0 3 1029.5 1029.6 -
16/08:00am 7.3 5.4 6.6 95 0.3 SSE 6 7 3 4 1029.3 1029.4 -

Other formats

Comma delimited format used in spreadsheet applications
http://www.bom.gov.au/fwo/IDN60801/IDN60801.94843.axf

JavaScript Object Notation format (JSON) in row-major order
http://www.bom.gov.au/fwo/IDN60801/IDN60801.94843.json

Data quality

Most of these data are generated automatically and are frequently updated. Quality checks on data are not normally performed. It is possible for incorrect values to appear. Refer to information at About Latest Weather Observations and please check the disclaimer before using these data.